createdAt,value
2018-09-24T00:00:59.139Z,57.70
2018-09-24T00:03:27.416Z,57.70
2018-09-24T00:05:55.569Z,57.80
2018-09-24T00:08:23.766Z,57.70
2018-09-24T00:10:52.128Z,57.60
2018-09-24T00:13:20.462Z,57.70
2018-09-24T00:15:49.328Z,57.70
2018-09-24T00:18:17.635Z,57.80
2018-09-24T00:20:52.960Z,57.80
2018-09-24T00:23:21.213Z,57.70
2018-09-24T00:25:49.654Z,57.90
2018-09-24T00:28:18.077Z,57.90
2018-09-24T00:30:46.616Z,58.00
2018-09-24T00:33:15.252Z,58.10
2018-09-24T00:35:43.535Z,58.00
2018-09-24T00:38:11.685Z,58.10
2018-09-24T00:40:39.845Z,58.10
2018-09-24T00:43:08.050Z,57.90
2018-09-24T00:45:36.327Z,57.90
2018-09-24T00:48:04.511Z,57.90
2018-09-24T00:50:32.785Z,57.90
2018-09-24T00:53:01.035Z,58.00
2018-09-24T00:55:29.188Z,58.20
2018-09-24T00:57:57.384Z,58.10
2018-09-24T01:00:25.781Z,58.10
2018-09-24T01:02:53.949Z,58.20
2018-09-24T01:05:22.116Z,58.20
2018-09-24T01:07:50.299Z,58.20
2018-09-24T01:10:18.462Z,58.20
2018-09-24T01:12:46.666Z,58.20
2018-09-24T01:15:15.160Z,58.20
2018-09-24T01:17:43.569Z,58.20
2018-09-24T01:20:12.344Z,58.30
2018-09-24T01:22:40.488Z,58.30
2018-09-24T01:25:08.644Z,58.50
2018-09-24T01:27:36.911Z,58.30
2018-09-24T01:30:05.233Z,58.50
2018-09-24T01:32:33.368Z,58.50
2018-09-24T01:35:01.555Z,58.40
2018-09-24T01:37:29.713Z,58.30
2018-09-24T01:39:57.953Z,58.30
2018-09-24T01:42:26.117Z,58.40
2018-09-24T01:44:54.338Z,58.40
2018-09-24T01:47:22.575Z,58.50
2018-09-24T01:49:50.761Z,58.60
2018-09-24T01:52:19.079Z,58.50
2018-09-24T01:54:47.257Z,58.50
2018-09-24T01:57:17.320Z,58.70
2018-09-24T01:59:51.460Z,58.60
2018-09-24T02:02:19.910Z,58.60
2018-09-24T02:04:48.383Z,58.60
2018-09-24T02:07:16.534Z,58.60
2018-09-24T02:09:45.176Z,58.70
2018-09-24T02:12:13.590Z,58.70
2018-09-24T02:14:41.748Z,58.70
2018-09-24T02:17:15.584Z,58.70
2018-09-24T02:19:44.214Z,58.70
2018-09-24T02:22:12.775Z,58.80
2018-09-24T02:24:40.967Z,58.80
2018-09-24T02:27:10.136Z,58.80
2018-09-24T02:29:38.794Z,58.80
2018-09-24T02:32:07.061Z,58.80
2018-09-24T02:34:35.407Z,58.80
2018-09-24T02:37:03.632Z,58.70
2018-09-24T02:39:31.806Z,58.60
2018-09-24T02:41:59.959Z,58.80
2018-09-24T02:44:28.425Z,58.80
2018-09-24T02:46:56.583Z,58.80
2018-09-24T02:49:24.793Z,58.80
2018-09-24T02:51:53.112Z,58.80
2018-09-24T02:54:21.264Z,58.90
2018-09-24T02:56:51.342Z,58.90
2018-09-24T02:59:19.841Z,59.00
2018-09-24T03:01:47.959Z,58.90
2018-09-24T03:04:16.103Z,59.00
2018-09-24T03:06:44.260Z,59.00
2018-09-24T03:09:14.604Z,59.60
2018-09-24T03:11:43.075Z,59.00
2018-09-24T03:14:11.216Z,59.00
2018-09-24T03:16:39.380Z,59.00
2018-09-24T03:19:07.509Z,59.00
2018-09-24T03:21:35.657Z,58.90
2018-09-24T03:24:03.815Z,59.60
2018-09-24T03:26:31.911Z,58.90
2018-09-24T03:29:00.080Z,59.00
2018-09-24T03:31:29.462Z,59.00
2018-09-24T03:33:57.604Z,59.00
2018-09-24T03:36:25.731Z,59.00
2018-09-24T03:38:53.917Z,59.00
2018-09-24T03:41:22.127Z,59.10
2018-09-24T03:43:50.294Z,58.90
2018-09-24T03:46:19.012Z,59.00
2018-09-24T03:48:47.796Z,59.20
2018-09-24T03:51:16.315Z,59.10
2018-09-24T03:53:44.710Z,59.20
2018-09-24T03:56:13.152Z,59.00
2018-09-24T03:58:41.479Z,59.00
2018-09-24T04:01:09.935Z,59.00
2018-09-24T04:03:38.116Z,59.10
2018-09-24T04:06:11.665Z,59.20
2018-09-24T04:08:44.991Z,59.20
2018-09-24T04:11:18.338Z,59.20
2018-09-24T04:13:51.967Z,59.10
2018-09-24T04:16:25.630Z,59.20
2018-09-24T04:18:59.292Z,59.00
2018-09-24T04:21:32.885Z,59.10
2018-09-24T04:24:06.315Z,59.00
2018-09-24T04:26:39.892Z,59.10
2018-09-24T04:29:13.506Z,59.20
2018-09-24T04:31:46.953Z,59.20
2018-09-24T04:34:20.860Z,59.10
2018-09-24T04:36:54.428Z,59.20
2018-09-24T04:39:28.063Z,59.20
2018-09-24T04:42:01.342Z,59.10
2018-09-24T04:44:34.813Z,59.20
2018-09-24T04:47:08.263Z,59.20
2018-09-24T04:49:41.700Z,59.10
2018-09-24T04:52:15.291Z,59.30
2018-09-24T04:54:48.907Z,59.20
2018-09-24T04:57:22.353Z,59.20
2018-09-24T04:59:55.784Z,59.10
2018-09-24T05:02:29.212Z,59.30
2018-09-24T05:05:02.560Z,59.20
2018-09-24T05:07:36.103Z,59.10
2018-09-24T05:10:09.732Z,59.20
2018-09-24T05:12:43.197Z,59.10
2018-09-24T05:15:16.883Z,59.10
2018-09-24T05:17:50.204Z,59.30
2018-09-24T05:20:23.807Z,59.20
2018-09-24T05:22:57.404Z,59.50
2018-09-24T05:25:30.860Z,59.60
2018-09-24T05:28:04.476Z,59.50
2018-09-24T05:30:38.061Z,59.60
2018-09-24T05:33:11.753Z,59.60
2018-09-24T05:35:45.458Z,59.50
2018-09-24T05:38:19.069Z,59.60
2018-09-24T05:40:52.723Z,59.70
2018-09-24T05:43:26.321Z,59.70
2018-09-24T05:45:59.980Z,59.60
2018-09-24T05:48:33.315Z,59.60
2018-09-24T05:51:06.799Z,59.70
2018-09-24T05:53:40.206Z,59.60
2018-09-24T05:56:13.769Z,59.70
2018-09-24T05:58:47.278Z,59.80
2018-09-24T06:01:20.792Z,59.70
2018-09-24T06:03:54.235Z,59.60
2018-09-24T06:06:27.800Z,59.80
2018-09-24T06:09:01.526Z,59.70
2018-09-24T06:11:35.117Z,59.80
2018-09-24T06:14:08.740Z,59.70
2018-09-24T06:16:42.253Z,59.50
2018-09-24T06:19:15.883Z,59.40
2018-09-24T06:21:49.235Z,59.60
2018-09-24T06:24:22.812Z,59.50
2018-09-24T06:26:56.307Z,59.40
2018-09-24T06:29:29.923Z,59.30
2018-09-24T06:32:03.397Z,59.40
2018-09-24T06:34:36.899Z,59.40
2018-09-24T06:37:10.480Z,59.80
2018-09-24T06:39:43.968Z,59.30
2018-09-24T06:42:21.516Z,59.30
2018-09-24T06:44:55.134Z,59.40
2018-09-24T06:47:28.696Z,59.40
2018-09-24T06:50:02.159Z,59.50
2018-09-24T06:52:35.574Z,59.40
2018-09-24T06:55:09.154Z,59.30
2018-09-24T06:57:42.635Z,59.00
2018-09-24T07:00:16.085Z,58.80
2018-09-24T07:02:49.729Z,59.00
2018-09-24T07:05:23.408Z,59.00
2018-09-24T07:07:56.687Z,59.10
2018-09-24T07:10:30.102Z,58.90
2018-09-24T07:13:03.808Z,58.90
2018-09-24T07:15:37.258Z,59.10
2018-09-24T07:18:10.648Z,59.40
2018-09-24T07:20:44.147Z,59.50
2018-09-24T07:23:17.684Z,59.60
2018-09-24T07:25:51.073Z,59.40
2018-09-24T07:28:24.663Z,59.40
2018-09-24T07:30:57.987Z,59.30
2018-09-24T07:33:31.633Z,59.00
2018-09-24T07:36:05.286Z,58.80
2018-09-24T07:38:38.716Z,58.70
2018-09-24T07:41:12.222Z,58.50
2018-09-24T07:43:45.875Z,58.40
2018-09-24T07:46:19.218Z,58.30
2018-09-24T07:48:52.815Z,58.40
2018-09-24T07:51:26.424Z,58.50
2018-09-24T07:53:59.917Z,58.20
2018-09-24T07:56:33.526Z,58.30
2018-09-24T07:59:06.980Z,58.30
2018-09-24T08:01:40.623Z,57.70
2018-09-24T08:04:14.063Z,57.80
2018-09-24T08:06:47.561Z,58.20
2018-09-24T08:09:21.158Z,58.40
2018-09-24T08:11:54.814Z,58.50
2018-09-24T08:14:28.536Z,58.60
2018-09-24T08:17:02.141Z,58.40
2018-09-24T08:19:35.639Z,58.30
2018-09-24T08:22:09.131Z,58.10
2018-09-24T08:24:42.815Z,58.00
2018-09-24T08:27:16.443Z,57.50
2018-09-24T08:29:50.042Z,57.40
2018-09-24T08:32:23.639Z,58.20
2018-09-24T08:34:57.244Z,57.40
2018-09-24T08:37:30.696Z,56.90
2018-09-24T08:40:04.443Z,56.70
2018-09-24T08:42:37.934Z,56.70
2018-09-24T08:45:11.598Z,56.70
2018-09-24T08:47:45.055Z,56.80
2018-09-24T08:50:18.767Z,56.50
2018-09-24T08:52:52.142Z,56.40
2018-09-24T08:55:25.778Z,56.00
2018-09-24T08:57:59.403Z,55.60
2018-09-24T09:00:32.832Z,55.50
2018-09-24T09:03:06.488Z,55.20
2018-09-24T09:05:39.845Z,54.50
2018-09-24T09:08:13.577Z,54.30
2018-09-24T09:10:47.290Z,54.80
2018-09-24T09:13:20.609Z,55.60
2018-09-24T09:15:54.270Z,56.20
2018-09-24T09:18:28.032Z,56.80
2018-09-24T09:21:01.540Z,57.10
2018-09-24T09:23:35.118Z,57.40
2018-09-24T09:26:08.685Z,57.70
2018-09-24T09:28:42.293Z,57.50
2018-09-24T09:31:15.762Z,56.50
2018-09-24T09:33:49.191Z,56.00
2018-09-24T09:36:22.760Z,55.20
2018-09-24T09:38:56.412Z,54.30
2018-09-24T09:41:29.980Z,54.10
2018-09-24T09:44:03.627Z,53.70
2018-09-24T09:46:37.181Z,53.30
2018-09-24T09:49:10.633Z,53.10
2018-09-24T09:51:44.364Z,52.90
2018-09-24T09:54:17.836Z,52.80
2018-09-24T09:56:51.498Z,52.40
2018-09-24T09:59:25.120Z,52.10
2018-09-24T10:01:58.696Z,51.80
2018-09-24T10:04:32.406Z,51.50
2018-09-24T10:07:05.923Z,51.20
2018-09-24T10:09:39.435Z,50.80
2018-09-24T10:12:13.079Z,50.40
2018-09-24T10:14:46.781Z,49.90
2018-09-24T10:17:20.264Z,49.70
2018-09-24T10:19:53.923Z,49.80
2018-09-24T10:22:27.322Z,50.40
2018-09-24T10:25:00.940Z,50.80
2018-09-24T10:27:34.540Z,51.70
2018-09-24T10:30:07.928Z,52.20
2018-09-24T10:32:41.498Z,53.30
2018-09-24T10:35:14.983Z,53.80
2018-09-24T10:37:48.560Z,54.50
2018-09-24T10:40:22.081Z,54.60
2018-09-24T10:42:55.712Z,53.80
2018-09-24T10:45:29.234Z,53.20
2018-09-24T10:48:02.736Z,52.20
2018-09-24T10:50:36.434Z,51.20
2018-09-24T10:53:09.995Z,50.30
2018-09-24T10:55:43.530Z,49.40
2018-09-24T10:58:16.984Z,48.60
2018-09-24T11:00:50.480Z,48.10
2018-09-24T11:03:23.959Z,47.70
2018-09-24T11:05:57.511Z,47.50
2018-09-24T11:08:31.267Z,47.30
2018-09-24T11:11:04.919Z,47.00
2018-09-24T11:13:38.620Z,46.70
2018-09-24T11:16:12.602Z,45.60
2018-09-24T11:18:46.005Z,42.10
2018-09-24T11:21:19.867Z,39.40
2018-09-24T11:23:53.720Z,41.90
2018-09-24T11:29:00.700Z,46.00
2018-09-24T11:31:34.108Z,44.10
2018-09-24T11:34:07.635Z,38.30
2018-09-24T11:36:41.131Z,34.60
2018-09-24T11:39:14.718Z,31.50
2018-09-24T11:41:48.355Z,27.90
2018-09-24T11:44:21.838Z,26.30
2018-09-24T11:46:55.426Z,24.70
2018-09-24T11:49:28.975Z,23.50
2018-09-24T11:52:02.364Z,26.80
2018-09-24T11:54:36.137Z,31.20
2018-09-24T11:57:09.659Z,35.90
2018-09-24T11:59:43.168Z,38.90
2018-09-24T12:02:16.875Z,41.20
2018-09-24T12:04:50.421Z,43.00
2018-09-24T12:07:23.897Z,44.30
2018-09-24T12:09:57.421Z,45.40
2018-09-24T12:12:31.219Z,46.70
2018-09-24T12:15:04.929Z,47.60
2018-09-24T12:17:38.372Z,44.60
2018-09-24T12:20:11.823Z,35.60
2018-09-24T12:22:45.326Z,29.20
2018-09-24T12:25:18.881Z,26.40
2018-09-24T12:27:52.307Z,23.60
2018-09-24T12:30:26.007Z,22.20
2018-09-24T12:32:59.438Z,20.90
2018-09-24T12:35:32.993Z,20.20
2018-09-24T12:38:06.608Z,19.50
2018-09-24T12:40:40.203Z,19.30
2018-09-24T12:43:13.782Z,22.20
2018-09-24T12:45:47.411Z,26.10
2018-09-24T12:48:20.897Z,28.70
2018-09-24T12:50:54.275Z,31.10
2018-09-24T12:53:27.895Z,34.50
2018-09-24T12:56:01.464Z,37.20
2018-09-24T12:58:34.892Z,39.70
2018-09-24T13:01:08.211Z,41.50
2018-09-24T13:03:41.666Z,42.80
2018-09-24T13:06:15.095Z,44.30
2018-09-24T13:08:48.596Z,45.50
2018-09-24T13:11:22.183Z,46.40
2018-09-24T13:13:55.846Z,47.00
2018-09-24T13:16:29.517Z,46.60
2018-09-24T13:19:03.260Z,43.40
2018-09-24T13:21:36.766Z,42.20
2018-09-24T13:24:10.298Z,39.60
2018-09-24T13:26:43.938Z,30.30
2018-09-24T13:29:17.451Z,26.30
2018-09-24T13:31:51.115Z,24.10
2018-09-24T13:34:24.706Z,23.20
2018-09-24T13:36:58.349Z,22.00
2018-09-24T13:39:31.913Z,20.70
2018-09-24T13:42:05.366Z,21.50
2018-09-24T13:44:39.002Z,22.60
2018-09-24T13:47:12.726Z,23.00
2018-09-24T13:49:46.437Z,22.60
2018-09-24T13:52:20.156Z,22.10
2018-09-24T13:54:53.760Z,23.30
2018-09-24T13:57:27.430Z,24.70
2018-09-24T14:00:00.874Z,25.70
2018-09-24T14:02:34.483Z,26.30
2018-09-24T14:05:08.003Z,27.80
2018-09-24T14:07:41.316Z,30.10
2018-09-24T14:10:14.856Z,32.60
2018-09-24T14:12:48.521Z,33.50
2018-09-24T14:15:22.244Z,32.70
2018-09-24T14:17:55.600Z,29.40
2018-09-24T14:20:29.188Z,26.80
2018-09-24T14:23:02.787Z,24.90
2018-09-24T14:25:36.424Z,23.70
2018-09-24T14:28:09.819Z,23.70
2018-09-24T14:30:43.112Z,22.60
2018-09-24T14:33:16.447Z,22.10
2018-09-24T14:35:49.900Z,21.80
2018-09-24T14:38:23.371Z,21.10
2018-09-24T14:40:56.920Z,20.70
2018-09-24T14:43:30.505Z,20.60
2018-09-24T14:46:03.999Z,20.40
2018-09-24T14:48:37.428Z,20.40
2018-09-24T14:51:10.812Z,21.40
2018-09-24T14:53:51.023Z,24.40
2018-09-24T14:56:24.451Z,27.40
2018-09-24T14:58:57.900Z,29.90
2018-09-24T15:01:31.498Z,32.40
2018-09-24T15:04:05.064Z,34.10
2018-09-24T15:06:38.648Z,34.40
2018-09-24T15:09:13.196Z,35.20
2018-09-24T15:11:46.669Z,36.60
2018-09-24T15:14:20.116Z,37.80
2018-09-24T15:16:53.579Z,39.10
2018-09-24T15:19:27.039Z,40.10
2018-09-24T15:22:00.665Z,40.70
2018-09-24T15:24:34.271Z,40.80
2018-09-24T15:27:07.679Z,38.40
2018-09-24T15:29:41.384Z,34.90
2018-09-24T15:32:14.977Z,32.60
2018-09-24T15:34:48.653Z,31.10
2018-09-24T15:37:22.354Z,30.70
2018-09-24T15:39:55.775Z,29.30
2018-09-24T15:42:29.111Z,29.10
2018-09-24T15:45:02.571Z,30.50
2018-09-24T15:47:35.919Z,32.20
2018-09-24T15:50:09.409Z,34.80
2018-09-24T15:52:43.047Z,37.00
2018-09-24T15:55:16.679Z,38.60
2018-09-24T15:57:50.232Z,39.80
2018-09-24T16:00:23.775Z,40.60
2018-09-24T16:02:57.316Z,41.40
2018-09-24T16:05:30.979Z,42.10
2018-09-24T16:08:04.388Z,42.90
2018-09-24T16:10:37.868Z,43.80
2018-09-24T16:13:11.577Z,43.70
2018-09-24T16:15:45.044Z,44.40
2018-09-24T16:18:18.743Z,44.80
2018-09-24T16:20:52.424Z,45.10
2018-09-24T16:23:25.987Z,45.40
2018-09-24T16:25:59.659Z,45.50
2018-09-24T16:28:33.360Z,45.70
2018-09-24T16:31:07.031Z,45.90
2018-09-24T16:33:40.415Z,46.10
2018-09-24T16:36:13.776Z,46.40
2018-09-24T16:38:47.280Z,46.40
2018-09-24T16:41:20.777Z,46.60
2018-09-24T16:43:54.387Z,46.60
2018-09-24T16:46:27.755Z,46.80
2018-09-24T16:49:01.432Z,46.90
2018-09-24T16:51:34.848Z,47.20
2018-09-24T16:54:08.395Z,47.40
2018-09-24T16:56:41.763Z,47.60
2018-09-24T16:59:15.238Z,47.80
2018-09-24T17:01:48.581Z,47.90
2018-09-24T17:04:21.992Z,48.00
2018-09-24T17:06:55.352Z,48.20
2018-09-24T17:09:28.748Z,48.70
2018-09-24T17:12:02.357Z,48.60
2018-09-24T17:14:35.870Z,48.60
2018-09-24T17:17:09.525Z,49.00
2018-09-24T17:19:42.985Z,49.00
2018-09-24T17:22:16.499Z,49.10
2018-09-24T17:24:50.069Z,49.30
2018-09-24T17:27:23.706Z,49.40
2018-09-24T17:29:57.187Z,49.50
2018-09-24T17:32:30.840Z,49.80
2018-09-24T17:35:04.488Z,49.70
2018-09-24T17:37:37.838Z,49.90
2018-09-24T17:40:11.308Z,50.20
2018-09-24T17:42:44.760Z,50.10
2018-09-24T17:45:18.352Z,50.10
2018-09-24T17:47:51.831Z,50.30
2018-09-24T17:50:25.333Z,50.40
2018-09-24T17:52:59.018Z,50.40
2018-09-24T17:55:32.572Z,50.50
2018-09-24T17:58:06.080Z,50.60
2018-09-24T18:00:39.520Z,50.60
2018-09-24T18:03:13.083Z,50.70
2018-09-24T18:05:46.552Z,50.80
2018-09-24T18:08:20.022Z,50.80
2018-09-24T18:10:53.444Z,51.00
2018-09-24T18:13:27.016Z,51.00
2018-09-24T18:16:00.491Z,51.10
2018-09-24T18:18:34.065Z,51.10
2018-09-24T18:21:07.505Z,51.40
2018-09-24T18:23:41.144Z,51.30
2018-09-24T18:26:14.780Z,51.50
2018-09-24T18:28:48.337Z,51.60
2018-09-24T18:31:21.790Z,51.60
2018-09-24T18:33:55.215Z,51.70
2018-09-24T18:36:28.691Z,51.70
2018-09-24T18:39:02.268Z,51.70
2018-09-24T18:41:35.850Z,51.80
2018-09-24T18:44:09.470Z,51.80
2018-09-24T18:46:42.955Z,52.00
2018-09-24T18:49:16.544Z,52.00
2018-09-24T18:51:50.115Z,52.00
2018-09-24T18:54:23.574Z,52.20
2018-09-24T18:56:56.898Z,52.10
2018-09-24T18:59:30.331Z,52.30
2018-09-24T19:02:03.908Z,52.20
2018-09-24T19:04:37.487Z,52.30
2018-09-24T19:07:11.083Z,52.30
2018-09-24T19:09:44.670Z,52.30
2018-09-24T19:12:18.176Z,52.40
2018-09-24T19:14:51.551Z,52.40
2018-09-24T19:17:24.981Z,52.50
2018-09-24T19:19:58.336Z,52.60
2018-09-24T19:22:31.831Z,52.60
2018-09-24T19:25:05.452Z,52.70
2018-09-24T19:27:39.028Z,52.70
2018-09-24T19:30:12.596Z,52.80
2018-09-24T19:32:46.080Z,53.00
2018-09-24T19:35:19.734Z,52.90
2018-09-24T19:37:53.290Z,53.00
2018-09-24T19:40:26.703Z,53.00
2018-09-24T19:43:00.165Z,53.10
2018-09-24T19:45:33.628Z,53.20
2018-09-24T19:48:07.088Z,53.20
2018-09-24T19:50:40.562Z,53.40
2018-09-24T19:53:14.070Z,53.30
2018-09-24T19:55:47.488Z,53.50
2018-09-24T19:58:21.109Z,53.60
2018-09-24T20:00:54.443Z,53.60
2018-09-24T20:03:27.986Z,53.70
2018-09-24T20:06:01.545Z,53.70
2018-09-24T20:08:35.190Z,53.60
2018-09-24T20:11:08.635Z,53.60
2018-09-24T20:13:42.288Z,53.80
2018-09-24T20:16:15.626Z,53.80
2018-09-24T20:18:49.099Z,53.90
2018-09-24T20:21:22.672Z,53.90
2018-09-24T20:23:56.245Z,53.90
2018-09-24T20:26:29.904Z,54.00
2018-09-24T20:29:03.467Z,54.00
2018-09-24T20:31:37.066Z,54.10
2018-09-24T20:34:10.737Z,54.10
2018-09-24T20:36:44.272Z,54.00
2018-09-24T20:39:19.880Z,54.20
2018-09-24T20:41:53.226Z,54.20
2018-09-24T20:44:26.864Z,54.30
2018-09-24T20:47:00.484Z,54.40
2018-09-24T20:49:33.967Z,54.30
2018-09-24T20:52:07.339Z,54.30
2018-09-24T20:54:40.954Z,54.60
2018-09-24T20:57:14.661Z,54.50
2018-09-24T20:59:48.216Z,54.60
2018-09-24T21:02:21.839Z,54.40
2018-09-24T21:04:55.440Z,54.50
2018-09-24T21:07:29.020Z,54.50
2018-09-24T21:10:02.619Z,54.70
2018-09-24T21:12:36.233Z,54.70
2018-09-24T21:15:09.673Z,54.80
2018-09-24T21:17:43.283Z,55.50
2018-09-24T21:20:16.679Z,54.90
2018-09-24T21:22:50.239Z,54.80
2018-09-24T21:25:23.773Z,55.00
2018-09-24T21:27:58.058Z,55.00
2018-09-24T21:30:31.375Z,55.10
2018-09-24T21:33:05.073Z,55.10
2018-09-24T21:35:38.633Z,55.10
2018-09-24T21:38:12.216Z,55.00
2018-09-24T21:40:45.789Z,55.00
2018-09-24T21:43:19.094Z,54.90
2018-09-24T21:45:52.674Z,54.90
2018-09-24T21:48:26.207Z,55.00
2018-09-24T21:50:59.844Z,55.00
2018-09-24T21:53:33.408Z,55.10
2018-09-24T21:56:07.011Z,55.10
2018-09-24T21:58:40.667Z,55.10
2018-09-24T22:01:14.135Z,55.10
2018-09-24T22:03:47.460Z,55.20
2018-09-24T22:06:20.799Z,55.10
2018-09-24T22:08:54.131Z,55.10
2018-09-24T22:11:27.779Z,55.20
2018-09-24T22:14:01.150Z,55.20
2018-09-24T22:16:34.516Z,55.20
2018-09-24T22:19:08.077Z,55.30
2018-09-24T22:21:41.720Z,55.20
2018-09-24T22:24:15.288Z,55.20
2018-09-24T22:26:48.727Z,55.20
2018-09-24T22:29:22.240Z,55.30
2018-09-24T22:31:55.840Z,55.30
2018-09-24T22:34:31.927Z,55.40
2018-09-24T22:37:05.268Z,55.30
2018-09-24T22:39:38.695Z,55.40
2018-09-24T22:42:12.240Z,55.40
2018-09-24T22:44:45.728Z,55.40
2018-09-24T22:47:19.581Z,55.30
2018-09-24T22:49:53.136Z,55.30
2018-09-24T22:52:26.681Z,55.30
2018-09-24T22:55:00.132Z,55.30
2018-09-24T22:57:33.567Z,55.30
2018-09-24T23:00:08.203Z,55.40
2018-09-24T23:02:41.515Z,55.40
2018-09-24T23:05:15.133Z,55.40
2018-09-24T23:07:48.646Z,55.30
2018-09-24T23:10:22.104Z,55.30
2018-09-24T23:12:55.733Z,55.30
2018-09-24T23:15:29.424Z,55.30
2018-09-24T23:18:02.859Z,55.40
2018-09-24T23:20:36.171Z,55.40
2018-09-24T23:23:09.612Z,55.50
2018-09-24T23:25:43.168Z,55.50
2018-09-24T23:28:16.717Z,55.50
2018-09-24T23:30:50.035Z,55.50
2018-09-24T23:33:23.491Z,55.50
2018-09-24T23:35:56.914Z,55.60
2018-09-24T23:38:30.594Z,55.50
2018-09-24T23:41:04.032Z,55.50
2018-09-24T23:43:37.686Z,55.60
2018-09-24T23:46:11.280Z,55.60
2018-09-24T23:48:44.882Z,55.60
2018-09-24T23:51:18.436Z,55.60
2018-09-24T23:53:52.038Z,55.70
2018-09-24T23:56:25.635Z,55.80
2018-09-24T23:58:59.235Z,55.80
